Terminal Aerodrome Forecast
Issued by NWS Lake Charles, LA

Home | Current Version | Previous Version | Text Only | Print | Product List | Glossary On
Versions: 1 2 3 4 5 6 7 8 9 10 11 12 13 14 15 16 17 18
000
FTUS44 KLCH 201700
TAFAEX
TAF
KAEX 201732Z 2018/2118 01009KT P6SM BKN012
      TEMPO 2018/2020 SCT015
     FM202000 02006KT P6SM SCT025
     FM210500 03003KT 4SM BR SCT015
     FM211400 06003KT P6SM SCT025=

USA.gov is the U.S. government's official web portal to all federal, state and local government web resources and services.